createdAt,value
2019-05-19T00:00:06.327Z,0.00
2019-05-19T00:01:06.495Z,0.00
2019-05-19T00:02:06.640Z,0.00
2019-05-19T00:03:06.844Z,0.00
2019-05-19T00:04:07.010Z,0.00
2019-05-19T00:05:07.191Z,0.00
2019-05-19T00:06:07.331Z,0.00
2019-05-19T00:07:07.500Z,0.00
2019-05-19T00:08:07.686Z,0.00
2019-05-19T00:09:07.886Z,0.00
2019-05-19T00:10:08.080Z,0.00
2019-05-19T00:11:08.262Z,0.00
2019-05-19T00:12:08.471Z,0.00
2019-05-19T00:13:08.666Z,0.00
2019-05-19T00:14:08.877Z,0.00
2019-05-19T00:15:09.065Z,0.00
2019-05-19T00:16:09.246Z,0.00
2019-05-19T00:17:09.401Z,0.00
2019-05-19T00:18:10.595Z,0.00
2019-05-19T00:19:09.738Z,0.00
2019-05-19T00:20:09.948Z,0.00
2019-05-19T00:21:10.159Z,0.00
2019-05-19T00:22:10.381Z,0.00
2019-05-19T00:23:10.619Z,0.00
2019-05-19T00:24:10.838Z,0.00
2019-05-19T00:25:11.045Z,0.00
2019-05-19T00:26:11.239Z,0.00
2019-05-19T00:27:11.436Z,0.00
2019-05-19T00:28:11.659Z,0.00
2019-05-19T00:29:11.874Z,0.00
2019-05-19T00:30:12.112Z,0.00
2019-05-19T00:31:12.310Z,0.00
2019-05-19T00:32:12.508Z,0.00
2019-05-19T00:33:12.699Z,0.00
2019-05-19T00:34:12.920Z,0.00
2019-05-19T00:35:13.100Z,0.00
2019-05-19T00:36:13.288Z,0.00
2019-05-19T00:37:13.472Z,0.00
2019-05-19T00:38:13.700Z,0.00
2019-05-19T00:39:13.939Z,0.00
2019-05-19T00:40:14.083Z,0.00
2019-05-19T00:41:14.283Z,0.00
2019-05-19T00:42:14.456Z,0.00
2019-05-19T00:43:14.631Z,0.00
2019-05-19T00:44:14.837Z,0.00
2019-05-19T00:45:14.984Z,0.00
2019-05-19T00:46:15.143Z,0.00
2019-05-19T00:47:15.290Z,0.00
2019-05-19T00:48:15.417Z,0.00
2019-05-19T00:49:15.580Z,0.00
2019-05-19T00:50:15.741Z,0.00
2019-05-19T00:51:15.885Z,0.00
2019-05-19T00:52:16.013Z,0.00
2019-05-19T00:53:16.164Z,0.00
2019-05-19T00:54:16.373Z,0.00
2019-05-19T00:55:16.530Z,0.00
2019-05-19T00:56:16.695Z,0.00
2019-05-19T00:57:16.849Z,0.00
2019-05-19T00:58:17.034Z,0.00
2019-05-19T00:59:17.186Z,0.00
2019-05-19T01:00:17.344Z,0.00
2019-05-19T01:01:17.489Z,0.00
2019-05-19T01:02:17.684Z,0.00
2019-05-19T01:03:17.848Z,0.00
2019-05-19T01:04:18.028Z,0.00
2019-05-19T01:05:20.693Z,0.00
2019-05-19T01:06:18.406Z,0.00
2019-05-19T01:07:18.591Z,0.00
2019-05-19T01:08:18.750Z,0.00
2019-05-19T01:09:18.913Z,0.00
2019-05-19T01:10:19.066Z,0.00
2019-05-19T01:11:19.244Z,0.00
2019-05-19T01:12:19.418Z,0.00
2019-05-19T01:13:19.578Z,0.00
2019-05-19T01:14:19.736Z,0.00
2019-05-19T01:15:19.902Z,0.00
2019-05-19T01:16:20.032Z,0.00
2019-05-19T01:17:20.229Z,0.00
2019-05-19T01:18:20.367Z,0.00
2019-05-19T01:19:20.538Z,0.00
2019-05-19T01:20:20.710Z,0.00
2019-05-19T01:21:20.834Z,0.00
2019-05-19T01:22:20.994Z,0.00
2019-05-19T01:23:21.143Z,0.00
2019-05-19T01:24:21.281Z,0.00
2019-05-19T01:25:21.461Z,0.00
2019-05-19T01:26:21.642Z,0.00
2019-05-19T01:27:21.781Z,0.00
2019-05-19T01:28:21.932Z,0.00
2019-05-19T01:29:22.089Z,0.00
2019-05-19T01:30:22.240Z,0.00
2019-05-19T01:31:22.407Z,0.00
2019-05-19T01:32:22.611Z,0.00
2019-05-19T01:33:22.835Z,0.00
2019-05-19T01:34:22.998Z,0.00
2019-05-19T01:35:23.169Z,0.00
2019-05-19T01:36:23.338Z,0.00
2019-05-19T01:37:23.532Z,0.00
2019-05-19T01:38:23.740Z,0.00
2019-05-19T01:39:23.931Z,0.00
2019-05-19T01:40:24.115Z,0.00
2019-05-19T01:41:24.261Z,0.00
2019-05-19T01:42:24.474Z,0.00
2019-05-19T01:43:24.652Z,0.00
2019-05-19T01:44:24.808Z,0.00
2019-05-19T01:45:24.949Z,0.00
2019-05-19T01:46:25.119Z,0.00
2019-05-19T01:47:25.342Z,0.00
2019-05-19T01:48:27.978Z,0.00
2019-05-19T01:49:25.657Z,0.00
2019-05-19T01:50:25.819Z,0.00
2019-05-19T01:51:25.969Z,0.00
2019-05-19T01:52:26.192Z,0.00
2019-05-19T01:53:26.360Z,0.00
2019-05-19T01:54:26.552Z,0.00
2019-05-19T01:55:26.700Z,0.00
2019-05-19T01:56:26.845Z,0.00
2019-05-19T01:57:27.011Z,0.00
2019-05-19T01:58:27.191Z,0.00
2019-05-19T01:59:27.350Z,0.00
2019-05-19T02:00:27.522Z,0.00
2019-05-19T02:01:27.689Z,0.00
2019-05-19T02:02:27.838Z,0.00
2019-05-19T02:03:28.005Z,0.00
2019-05-19T02:04:28.166Z,0.00
2019-05-19T02:05:28.328Z,0.00
2019-05-19T02:06:28.458Z,0.00
2019-05-19T02:07:28.625Z,0.00
2019-05-19T02:08:28.823Z,0.00
2019-05-19T02:09:28.968Z,0.00
2019-05-19T02:10:29.110Z,0.00
2019-05-19T02:11:29.261Z,0.00
2019-05-19T02:12:29.425Z,0.00
2019-05-19T02:13:29.586Z,0.00
2019-05-19T02:14:29.744Z,0.00
2019-05-19T02:15:29.887Z,0.00
2019-05-19T02:16:30.061Z,0.00
2019-05-19T02:17:30.198Z,0.00
2019-05-19T02:18:30.361Z,0.00
2019-05-19T02:19:30.509Z,0.00
2019-05-19T02:20:33.730Z,0.00
2019-05-19T02:21:31.789Z,0.00
2019-05-19T02:22:30.919Z,0.00
2019-05-19T02:23:31.099Z,0.00
2019-05-19T02:24:31.282Z,0.00
2019-05-19T02:25:31.418Z,0.00
2019-05-19T02:26:31.542Z,0.00
2019-05-19T02:27:31.706Z,0.00
2019-05-19T02:28:31.848Z,0.00
2019-05-19T02:29:32.017Z,0.00
2019-05-19T02:30:32.203Z,0.00
2019-05-19T02:31:32.369Z,0.00
2019-05-19T02:32:32.507Z,0.00
2019-05-19T02:33:35.713Z,0.00
2019-05-19T02:34:33.865Z,0.00
2019-05-19T02:35:32.969Z,0.00
2019-05-19T02:36:33.102Z,0.00
2019-05-19T02:37:33.286Z,0.00
2019-05-19T02:38:33.430Z,0.00
2019-05-19T02:39:33.596Z,0.00
2019-05-19T02:40:33.763Z,0.00
2019-05-19T02:41:33.918Z,0.00
2019-05-19T02:42:34.114Z,0.00
2019-05-19T02:43:34.283Z,0.00
2019-05-19T02:44:34.454Z,0.00
2019-05-19T02:45:34.600Z,0.00
2019-05-19T02:46:34.793Z,0.00
2019-05-19T02:47:34.943Z,0.00
2019-05-19T02:48:35.167Z,0.00
2019-05-19T02:49:35.311Z,0.00
2019-05-19T02:50:50.945Z,0.00
2019-05-19T02:51:37.736Z,0.00
2019-05-19T02:52:35.949Z,0.00
2019-05-19T02:53:36.103Z,0.00
2019-05-19T02:54:36.262Z,0.00
2019-05-19T02:55:36.457Z,0.00
2019-05-19T02:56:36.644Z,0.00
2019-05-19T02:57:36.825Z,0.00
2019-05-19T02:58:36.985Z,0.00
2019-05-19T02:59:37.171Z,0.00
2019-05-19T03:00:37.365Z,0.00
2019-05-19T03:01:37.573Z,0.00
2019-05-19T03:02:37.732Z,0.00
2019-05-19T03:03:37.901Z,0.00
2019-05-19T03:04:38.079Z,0.00
2019-05-19T03:05:38.278Z,0.00
2019-05-19T03:06:38.467Z,0.00
2019-05-19T03:07:38.633Z,0.00
2019-05-19T03:08:38.839Z,0.00
2019-05-19T03:09:39.006Z,0.00
2019-05-19T03:10:39.174Z,0.00
2019-05-19T03:11:39.371Z,0.00
2019-05-19T03:12:39.528Z,0.00
2019-05-19T03:13:39.689Z,0.00
2019-05-19T03:14:39.899Z,0.00
2019-05-19T03:15:40.073Z,0.00
2019-05-19T03:16:40.280Z,0.00
2019-05-19T03:17:40.460Z,0.00
2019-05-19T03:18:40.613Z,0.00
2019-05-19T03:19:40.788Z,0.00
2019-05-19T03:20:40.933Z,0.00
2019-05-19T03:21:41.102Z,0.00
2019-05-19T03:22:41.293Z,0.00
2019-05-19T03:23:41.482Z,0.00
2019-05-19T03:24:41.613Z,0.00
2019-05-19T03:25:44.263Z,0.00
2019-05-19T03:26:43.017Z,0.00
2019-05-19T03:27:42.166Z,0.00
2019-05-19T03:28:42.352Z,0.00
2019-05-19T03:29:42.502Z,0.00
2019-05-19T03:30:42.676Z,0.00
2019-05-19T03:31:42.844Z,0.00
2019-05-19T03:32:43.040Z,0.00
2019-05-19T03:33:43.223Z,0.00
2019-05-19T03:34:43.433Z,5.62
2019-05-19T03:35:43.591Z,5.62
2019-05-19T03:36:43.763Z,5.62
2019-05-19T03:37:43.963Z,5.62
2019-05-19T03:38:44.131Z,5.62
2019-05-19T03:39:44.298Z,5.62
2019-05-19T03:40:44.486Z,5.62
2019-05-19T03:41:44.643Z,5.62
2019-05-19T03:42:44.817Z,5.62
2019-05-19T03:43:44.986Z,5.62
2019-05-19T03:44:45.182Z,11.25
2019-05-19T03:45:45.342Z,11.25
2019-05-19T03:46:45.513Z,11.25
2019-05-19T03:47:45.686Z,11.25
2019-05-19T03:48:45.868Z,11.25
2019-05-19T03:49:46.030Z,11.25
2019-05-19T03:50:46.203Z,11.25
2019-05-19T03:51:46.383Z,16.88
2019-05-19T03:52:46.572Z,16.88
2019-05-19T03:53:46.795Z,16.88
2019-05-19T03:54:46.977Z,16.88
2019-05-19T03:55:47.148Z,16.88
2019-05-19T03:56:47.299Z,22.50
2019-05-19T03:57:48.468Z,22.50
2019-05-19T03:58:47.621Z,22.50
2019-05-19T03:59:47.797Z,22.50
2019-05-19T04:00:47.960Z,28.12
2019-05-19T04:01:48.122Z,28.12
2019-05-19T04:02:48.267Z,28.12
2019-05-19T04:03:48.466Z,28.12
2019-05-19T04:04:48.642Z,28.12
2019-05-19T04:05:48.823Z,28.12
2019-05-19T04:06:49.009Z,28.12
2019-05-19T04:07:49.191Z,28.12
2019-05-19T04:08:49.403Z,28.12
2019-05-19T04:09:49.586Z,33.75
2019-05-19T04:10:49.734Z,33.75
2019-05-19T04:11:49.935Z,33.75
2019-05-19T04:12:50.127Z,33.75
2019-05-19T04:13:50.301Z,33.75
2019-05-19T04:14:50.514Z,33.75
2019-05-19T04:15:50.713Z,33.75
2019-05-19T04:16:50.889Z,33.75
2019-05-19T04:17:51.049Z,39.38
2019-05-19T04:18:51.215Z,39.38
2019-05-19T04:19:51.389Z,39.38
2019-05-19T04:20:51.531Z,45.00
2019-05-19T04:21:51.731Z,45.00
2019-05-19T04:22:51.916Z,50.62
2019-05-19T04:23:52.086Z,50.62
2019-05-19T04:24:52.289Z,56.25
2019-05-19T04:25:52.472Z,61.88
2019-05-19T04:26:52.659Z,61.88
2019-05-19T04:27:52.846Z,67.50
2019-05-19T04:28:53.034Z,67.50
2019-05-19T04:29:53.187Z,67.50
2019-05-19T04:30:53.355Z,67.50
2019-05-19T04:31:53.507Z,73.12
2019-05-19T04:32:54.671Z,78.75
2019-05-19T04:33:53.811Z,78.75
2019-05-19T04:34:53.975Z,84.38
2019-05-19T04:35:57.388Z,84.38
2019-05-19T04:36:55.394Z,84.38
2019-05-19T04:37:54.530Z,90.00
2019-05-19T04:38:54.697Z,90.00
2019-05-19T04:39:54.863Z,95.62
2019-05-19T04:40:55.067Z,95.62
2019-05-19T04:41:55.228Z,95.62
2019-05-19T04:42:55.416Z,101.25
2019-05-19T04:43:55.561Z,101.25
2019-05-19T04:44:55.749Z,101.25
2019-05-19T04:45:55.954Z,101.25
2019-05-19T04:46:56.070Z,101.25
2019-05-19T04:47:56.333Z,101.25
2019-05-19T04:48:56.369Z,101.25
2019-05-19T04:49:56.533Z,101.25
2019-05-19T04:50:56.696Z,101.25
2019-05-19T04:52:06.749Z,101.25
2019-05-19T04:52:59.069Z,101.25
2019-05-19T04:53:57.284Z,101.25
2019-05-19T04:54:57.455Z,101.25
2019-05-19T04:55:57.631Z,106.88
2019-05-19T04:56:57.820Z,106.88
2019-05-19T04:57:57.962Z,106.88
2019-05-19T04:58:58.148Z,106.88
2019-05-19T04:59:58.269Z,106.88
2019-05-19T05:00:58.408Z,112.50
2019-05-19T05:01:58.587Z,112.50
2019-05-19T05:02:58.750Z,112.50
2019-05-19T05:03:58.925Z,118.12
2019-05-19T05:04:59.072Z,118.12
2019-05-19T05:05:59.222Z,123.75
2019-05-19T05:06:59.407Z,123.75
2019-05-19T05:07:59.560Z,129.38
2019-05-19T05:08:59.736Z,129.38
2019-05-19T05:09:59.891Z,129.38
2019-05-19T05:11:00.026Z,135.00
2019-05-19T05:12:00.212Z,135.00
2019-05-19T05:13:00.477Z,135.00
2019-05-19T05:14:00.509Z,135.00
2019-05-19T05:15:00.670Z,135.00
2019-05-19T05:16:00.824Z,135.00
2019-05-19T05:17:00.981Z,135.00
2019-05-19T05:18:01.256Z,135.00
2019-05-19T05:19:01.330Z,135.00
2019-05-19T05:20:01.518Z,135.00
2019-05-19T05:21:02.662Z,135.00
2019-05-19T05:22:02.919Z,135.00
2019-05-19T05:23:02.065Z,135.00
2019-05-19T05:24:02.209Z,135.00
2019-05-19T05:25:02.354Z,135.00
2019-05-19T05:26:02.513Z,135.00
2019-05-19T05:27:02.730Z,135.00
2019-05-19T05:28:02.894Z,135.00
2019-05-19T05:29:03.080Z,140.62
2019-05-19T05:30:03.252Z,140.62
2019-05-19T05:31:03.388Z,140.62
2019-05-19T05:32:03.525Z,140.62
2019-05-19T05:33:03.688Z,140.62
2019-05-19T05:34:03.865Z,140.62
2019-05-19T05:35:04.023Z,140.62
2019-05-19T05:36:04.219Z,135.00
2019-05-19T05:37:04.404Z,140.62
2019-05-19T05:38:04.549Z,140.62
2019-05-19T05:39:04.737Z,140.62
2019-05-19T05:40:04.924Z,140.62
2019-05-19T05:41:05.084Z,140.62
2019-05-19T05:42:05.245Z,140.62
2019-05-19T05:43:05.410Z,140.62
2019-05-19T05:44:05.613Z,140.62
2019-05-19T05:45:05.784Z,146.25
2019-05-19T05:46:05.923Z,146.25
2019-05-19T05:47:06.061Z,146.25
2019-05-19T05:48:06.228Z,146.25
2019-05-19T05:49:06.409Z,146.25
2019-05-19T05:50:06.567Z,151.88
2019-05-19T05:51:06.747Z,151.88
2019-05-19T05:52:06.921Z,151.88
2019-05-19T05:53:07.096Z,157.50
2019-05-19T05:54:07.288Z,163.12
2019-05-19T05:55:07.435Z,163.12
2019-05-19T05:56:07.615Z,168.75
2019-05-19T05:57:07.840Z,168.75
2019-05-19T05:58:08.039Z,174.38
2019-05-19T05:59:08.245Z,180.00
2019-05-19T06:00:08.450Z,180.00
2019-05-19T06:01:08.600Z,185.62
2019-05-19T06:02:09.760Z,191.25
2019-05-19T06:03:08.918Z,196.88
2019-05-19T06:04:09.061Z,202.50
2019-05-19T06:05:09.290Z,202.50
2019-05-19T06:06:09.463Z,208.12
2019-05-19T06:07:09.621Z,208.12
2019-05-19T06:08:09.768Z,213.75
2019-05-19T06:09:09.950Z,213.75
2019-05-19T06:10:10.168Z,219.38
2019-05-19T06:11:10.352Z,225.00
2019-05-19T06:12:10.530Z,230.62
2019-05-19T06:13:10.760Z,230.62
2019-05-19T06:14:10.952Z,236.25
2019-05-19T06:15:11.160Z,241.88
2019-05-19T06:16:11.350Z,241.88
2019-05-19T06:17:11.534Z,247.50
2019-05-19T06:18:11.743Z,253.12
2019-05-19T06:19:11.949Z,253.12
2019-05-19T06:20:12.166Z,258.75
2019-05-19T06:21:12.345Z,258.75
2019-05-19T06:22:12.559Z,264.38
2019-05-19T06:23:12.730Z,264.38
2019-05-19T06:24:13.946Z,264.38
2019-05-19T06:25:13.146Z,264.38
2019-05-19T06:26:13.326Z,264.38
2019-05-19T06:27:14.521Z,270.00
2019-05-19T06:28:13.652Z,270.00
2019-05-19T06:29:13.847Z,275.62
2019-05-19T06:30:13.999Z,275.62
2019-05-19T06:31:14.201Z,275.62
2019-05-19T06:32:14.386Z,275.62
2019-05-19T06:33:14.583Z,281.25
2019-05-19T06:34:14.741Z,281.25
2019-05-19T06:35:14.919Z,286.88
2019-05-19T06:36:15.117Z,286.88
2019-05-19T06:37:15.323Z,292.50
2019-05-19T06:38:15.511Z,292.50
2019-05-19T06:39:15.689Z,298.12
2019-05-19T06:40:15.861Z,298.12
2019-05-19T06:41:16.095Z,303.75
2019-05-19T06:42:16.303Z,309.38
2019-05-19T06:43:16.483Z,320.62
2019-05-19T06:44:16.697Z,337.50
2019-05-19T06:45:16.886Z,337.50
2019-05-19T06:46:17.066Z,331.88
2019-05-19T06:47:17.268Z,326.25
2019-05-19T06:48:17.458Z,326.25
2019-05-19T06:49:17.708Z,326.25
2019-05-19T06:50:17.908Z,326.25
2019-05-19T06:51:18.126Z,320.62
2019-05-19T06:52:18.368Z,320.62
2019-05-19T06:53:18.452Z,315.00
2019-05-19T06:54:18.630Z,315.00
2019-05-19T06:55:18.829Z,315.00
2019-05-19T06:56:19.056Z,309.38
2019-05-19T06:57:19.272Z,303.75
2019-05-19T06:58:19.381Z,298.12
2019-05-19T06:59:19.494Z,298.12
2019-05-19T07:00:19.705Z,303.75
2019-05-19T07:01:19.997Z,303.75
2019-05-19T07:02:20.147Z,298.12
2019-05-19T07:03:20.308Z,292.50
2019-05-19T07:04:20.482Z,286.88
2019-05-19T07:05:20.684Z,281.25
2019-05-19T07:06:20.871Z,281.25
2019-05-19T07:07:21.065Z,281.25
2019-05-19T07:08:21.273Z,286.88
2019-05-19T07:09:21.477Z,286.88
2019-05-19T07:10:21.674Z,286.88
2019-05-19T07:11:21.857Z,286.88
2019-05-19T07:12:22.044Z,281.25
2019-05-19T07:13:22.236Z,281.25
2019-05-19T07:14:22.395Z,281.25
2019-05-19T07:15:22.597Z,286.88
2019-05-19T07:16:22.782Z,292.50
2019-05-19T07:17:22.992Z,298.12
2019-05-19T07:18:23.282Z,303.75
2019-05-19T07:19:23.369Z,309.38
2019-05-19T07:20:23.601Z,309.38
2019-05-19T07:21:23.813Z,315.00
2019-05-19T07:22:23.980Z,315.00
2019-05-19T07:23:28.180Z,320.62
2019-05-19T07:24:25.288Z,320.62
2019-05-19T07:25:24.466Z,331.88
2019-05-19T07:26:24.659Z,331.88
2019-05-19T07:27:24.898Z,337.50
2019-05-19T07:28:25.093Z,354.38
2019-05-19T07:29:25.319Z,354.38
2019-05-19T07:30:25.430Z,360.00
2019-05-19T07:31:25.639Z,354.38
2019-05-19T07:32:25.825Z,354.38
2019-05-19T07:33:26.016Z,354.38
2019-05-19T07:34:26.225Z,354.38
2019-05-19T07:35:26.414Z,360.00
2019-05-19T07:36:26.630Z,365.62
2019-05-19T07:37:26.815Z,371.25
2019-05-19T07:38:27.008Z,376.88
2019-05-19T07:39:27.231Z,382.50
2019-05-19T07:40:27.419Z,388.12
2019-05-19T07:41:27.588Z,388.12
2019-05-19T07:42:27.785Z,393.75
2019-05-19T07:43:27.956Z,399.38
2019-05-19T07:44:28.165Z,405.00
2019-05-19T07:45:28.332Z,405.00
2019-05-19T07:46:28.522Z,410.62
2019-05-19T07:47:28.682Z,405.00
2019-05-19T07:48:28.880Z,405.00
2019-05-19T07:49:29.086Z,405.00
2019-05-19T07:50:29.274Z,405.00
2019-05-19T07:51:29.470Z,410.62
2019-05-19T07:52:29.662Z,405.00
2019-05-19T07:53:42.229Z,405.00
2019-05-19T07:54:32.036Z,416.25
2019-05-19T07:55:30.186Z,416.25
2019-05-19T07:56:30.385Z,421.88
2019-05-19T07:57:30.604Z,421.88
2019-05-19T07:58:30.795Z,421.88
2019-05-19T07:59:30.962Z,455.62
2019-05-19T08:00:31.231Z,523.12
2019-05-19T08:01:31.403Z,545.62
2019-05-19T08:02:31.638Z,618.75
2019-05-19T08:03:31.855Z,630.00
2019-05-19T08:04:32.077Z,618.75
2019-05-19T08:05:32.253Z,601.88
2019-05-19T08:06:32.453Z,590.62
2019-05-19T08:07:32.652Z,579.38
2019-05-19T08:08:32.870Z,618.75
2019-05-19T08:09:32.971Z,680.62
2019-05-19T08:10:33.134Z,742.50
2019-05-19T08:11:33.316Z,832.50
2019-05-19T08:12:33.519Z,658.12
2019-05-19T08:13:33.698Z,810.00
2019-05-19T08:14:33.821Z,1018.12
2019-05-19T08:15:33.991Z,1254.38
2019-05-19T08:16:34.226Z,1372.50
2019-05-19T08:17:34.391Z,1749.38
2019-05-19T08:18:34.565Z,2126.25
2019-05-19T08:19:34.711Z,1670.62
2019-05-19T08:20:34.881Z,1580.62
2019-05-19T08:21:35.094Z,1333.12
2019-05-19T08:22:36.264Z,1704.38
2019-05-19T08:23:35.432Z,736.88
2019-05-19T08:24:35.592Z,630.00
2019-05-19T08:25:35.894Z,675.00
2019-05-19T08:26:35.967Z,748.12
2019-05-19T08:27:36.202Z,596.25
2019-05-19T08:28:36.403Z,703.12
2019-05-19T08:29:36.607Z,675.00
2019-05-19T08:30:36.813Z,675.00
2019-05-19T08:31:37.011Z,618.75
2019-05-19T08:32:37.263Z,652.50
2019-05-19T08:33:37.458Z,753.75
2019-05-19T08:34:37.646Z,765.00
2019-05-19T08:35:37.853Z,832.50
2019-05-19T08:36:38.069Z,798.75
2019-05-19T08:37:38.257Z,601.88
2019-05-19T08:38:38.445Z,551.25
2019-05-19T08:39:38.642Z,551.25
2019-05-19T08:40:38.860Z,540.00
2019-05-19T08:41:39.037Z,523.12
2019-05-19T08:42:39.214Z,500.62
2019-05-19T08:43:39.425Z,500.62
2019-05-19T08:44:39.619Z,500.62
2019-05-19T08:45:39.822Z,495.00
2019-05-19T08:46:39.981Z,489.38
2019-05-19T08:47:40.160Z,495.00
2019-05-19T08:48:40.377Z,511.88
2019-05-19T08:49:40.564Z,551.25
2019-05-19T08:50:40.732Z,613.12
2019-05-19T08:51:40.899Z,708.75
2019-05-19T08:52:41.109Z,905.62
2019-05-19T08:53:41.335Z,928.12
2019-05-19T08:54:41.418Z,894.38
2019-05-19T08:55:41.625Z,810.00
2019-05-19T08:56:41.833Z,815.62
2019-05-19T08:57:42.085Z,855.00
2019-05-19T08:58:42.205Z,832.50
2019-05-19T08:59:42.450Z,759.38
2019-05-19T09:00:42.546Z,798.75
2019-05-19T09:01:42.769Z,815.62
2019-05-19T09:02:42.976Z,950.62
2019-05-19T09:03:43.198Z,973.12
2019-05-19T09:04:43.401Z,978.75
2019-05-19T09:05:43.567Z,990.00
2019-05-19T09:06:46.706Z,866.25
2019-05-19T09:07:43.964Z,748.12
2019-05-19T09:08:44.186Z,663.75
2019-05-19T09:09:44.368Z,646.88
2019-05-19T09:10:44.557Z,635.62
2019-05-19T09:11:47.847Z,658.12
2019-05-19T09:12:44.930Z,725.62
2019-05-19T09:13:45.160Z,703.12
2019-05-19T09:14:45.390Z,714.38
2019-05-19T09:15:45.549Z,804.38
2019-05-19T09:16:45.744Z,888.75
2019-05-19T09:17:45.932Z,849.38
2019-05-19T09:18:46.132Z,787.50
2019-05-19T09:19:46.365Z,810.00
2019-05-19T09:20:46.567Z,832.50
2019-05-19T09:21:46.762Z,759.38
2019-05-19T09:22:46.947Z,804.38
2019-05-19T09:23:47.235Z,849.38
2019-05-19T09:24:47.368Z,815.62
2019-05-19T09:25:47.520Z,860.62
2019-05-19T09:26:47.598Z,776.25
2019-05-19T09:27:47.797Z,787.50
2019-05-19T09:28:47.987Z,804.38
2019-05-19T09:29:48.229Z,759.38
2019-05-19T09:30:48.451Z,1006.88
2019-05-19T09:31:48.633Z,849.38
2019-05-19T09:32:48.846Z,995.62
2019-05-19T09:33:49.031Z,1068.75
2019-05-19T09:34:49.228Z,1006.88
2019-05-19T09:35:49.405Z,1276.88
2019-05-19T09:36:49.604Z,967.50
2019-05-19T09:37:49.787Z,675.00
2019-05-19T09:38:50.021Z,663.75
2019-05-19T09:39:50.264Z,641.25
2019-05-19T09:40:50.542Z,646.88
2019-05-19T09:41:50.599Z,641.25
2019-05-19T09:42:51.808Z,635.62
2019-05-19T09:43:50.975Z,635.62
2019-05-19T09:44:51.192Z,652.50
2019-05-19T09:45:51.315Z,658.12
2019-05-19T09:46:51.506Z,663.75
2019-05-19T09:47:51.705Z,697.50
2019-05-19T09:48:51.905Z,736.88
2019-05-19T09:49:52.095Z,860.62
2019-05-19T09:50:52.330Z,826.88
2019-05-19T09:51:52.578Z,748.12
2019-05-19T09:52:52.680Z,798.75
2019-05-19T09:53:52.856Z,838.12
2019-05-19T09:54:53.011Z,815.62
2019-05-19T09:55:53.189Z,781.88
2019-05-19T09:56:53.417Z,826.88
2019-05-19T09:57:53.587Z,838.12
2019-05-19T09:58:53.750Z,826.88
2019-05-19T09:59:53.896Z,810.00
2019-05-19T10:00:54.080Z,832.50
2019-05-19T10:01:54.218Z,832.50
2019-05-19T10:02:54.434Z,804.38
2019-05-19T10:03:54.603Z,781.88
2019-05-19T10:04:54.798Z,793.12
2019-05-19T10:05:54.998Z,798.75
2019-05-19T10:06:55.190Z,916.88
2019-05-19T10:07:55.391Z,956.25
2019-05-19T10:08:55.598Z,894.38
2019-05-19T10:09:55.782Z,742.50
2019-05-19T10:10:55.966Z,686.25
2019-05-19T10:11:56.156Z,686.25
2019-05-19T10:12:56.343Z,703.12
2019-05-19T10:13:56.565Z,736.88
2019-05-19T10:14:56.732Z,753.75
2019-05-19T10:15:56.907Z,843.75
2019-05-19T10:16:57.100Z,911.25
2019-05-19T10:17:57.294Z,984.38
2019-05-19T10:18:57.433Z,1018.12
2019-05-19T10:19:57.583Z,1901.25
2019-05-19T10:20:58.792Z,804.38
2019-05-19T10:21:57.925Z,725.62
2019-05-19T10:22:58.144Z,770.62
2019-05-19T10:23:58.324Z,804.38
2019-05-19T10:25:18.583Z,1040.62
2019-05-19T10:26:00.629Z,950.62
2019-05-19T10:26:58.867Z,922.50
2019-05-19T10:27:59.058Z,1254.38
2019-05-19T10:28:59.257Z,1366.88
2019-05-19T10:29:59.451Z,1738.12
2019-05-19T10:30:59.636Z,1080.00
2019-05-19T10:31:59.812Z,1175.62
2019-05-19T10:33:00.004Z,1423.12
2019-05-19T10:34:00.171Z,894.38
2019-05-19T10:35:00.384Z,1333.12
2019-05-19T10:36:00.597Z,956.25
2019-05-19T10:37:00.800Z,1125.00
2019-05-19T10:38:01.053Z,1901.25
2019-05-19T10:39:01.232Z,2390.62
2019-05-19T10:40:01.527Z,2075.62
2019-05-19T10:41:01.636Z,1288.12
2019-05-19T10:42:02.286Z,1440.00
2019-05-19T10:43:02.142Z,1276.88
2019-05-19T10:44:02.265Z,1136.25
2019-05-19T10:45:02.342Z,995.62
2019-05-19T10:46:02.540Z,1102.50
2019-05-19T10:47:03.116Z,1192.50
2019-05-19T10:48:02.920Z,1575.00
2019-05-19T10:49:03.122Z,1777.50
2019-05-19T10:50:04.287Z,1710.00
2019-05-19T10:51:03.431Z,2030.62
2019-05-19T10:52:03.648Z,2311.88
2019-05-19T10:53:03.834Z,1125.00
2019-05-19T10:54:04.019Z,2109.38
2019-05-19T10:55:04.224Z,1940.62
2019-05-19T10:56:04.449Z,1760.62
2019-05-19T10:57:04.527Z,1867.50
2019-05-19T10:58:04.722Z,1980.00
2019-05-19T10:59:04.976Z,2328.75
2019-05-19T11:00:05.045Z,2531.25
2019-05-19T11:01:05.265Z,2660.62
2019-05-19T11:02:05.453Z,2829.38
2019-05-19T11:03:05.645Z,2823.75
2019-05-19T11:04:05.872Z,2728.12
2019-05-19T11:05:06.026Z,2688.75
2019-05-19T11:06:06.195Z,2621.25
2019-05-19T11:07:06.414Z,2649.38
2019-05-19T11:08:06.617Z,2576.25
2019-05-19T11:09:06.838Z,2430.00
2019-05-19T11:10:07.027Z,2846.25
2019-05-19T11:11:07.226Z,2750.62
2019-05-19T11:12:07.442Z,2919.38
2019-05-19T11:13:07.624Z,2812.50
2019-05-19T11:14:07.854Z,2885.62
2019-05-19T11:15:08.011Z,2677.50
2019-05-19T11:16:08.233Z,2812.50
2019-05-19T11:17:08.395Z,2868.75
2019-05-19T11:18:08.539Z,1816.88
2019-05-19T11:19:08.758Z,1878.75
2019-05-19T11:20:08.895Z,1541.25
2019-05-19T11:21:09.116Z,1434.38
2019-05-19T11:22:09.266Z,1260.00
2019-05-19T11:23:09.425Z,1513.12
2019-05-19T11:24:09.570Z,1001.25
2019-05-19T11:25:09.733Z,2491.88
2019-05-19T11:26:09.949Z,2880.00
2019-05-19T11:27:10.251Z,2598.75
2019-05-19T11:28:11.297Z,1968.75
2019-05-19T11:29:10.448Z,1153.12
2019-05-19T11:30:10.654Z,748.12
2019-05-19T11:31:10.889Z,742.50
2019-05-19T11:32:10.974Z,1074.38
2019-05-19T11:33:11.270Z,1957.50
2019-05-19T11:34:11.335Z,1012.50
2019-05-19T11:35:11.507Z,1372.50
2019-05-19T11:36:11.726Z,1023.75
2019-05-19T11:37:11.891Z,714.38
2019-05-19T11:38:12.086Z,556.88
2019-05-19T11:39:12.249Z,444.38
2019-05-19T11:40:12.946Z,399.38
2019-05-19T11:41:12.636Z,371.25
2019-05-19T11:42:12.862Z,376.88
2019-05-19T11:43:13.035Z,376.88
2019-05-19T11:44:13.224Z,388.12
2019-05-19T11:45:13.372Z,405.00
2019-05-19T11:46:13.531Z,427.50
2019-05-19T11:47:14.003Z,438.75
2019-05-19T11:48:13.896Z,461.25
2019-05-19T11:49:14.060Z,495.00
2019-05-19T11:50:14.229Z,444.38
2019-05-19T11:51:14.432Z,444.38
2019-05-19T11:52:14.628Z,450.00
2019-05-19T11:53:16.467Z,455.62
2019-05-19T11:54:14.978Z,466.88
2019-05-19T11:55:15.163Z,466.88
2019-05-19T11:56:15.424Z,472.50
2019-05-19T11:57:15.528Z,444.38
2019-05-19T11:58:15.738Z,343.12
2019-05-19T11:59:15.916Z,298.12
2019-05-19T12:00:16.086Z,270.00
2019-05-19T12:01:16.246Z,253.12
2019-05-19T12:02:16.415Z,236.25
2019-05-19T12:03:16.659Z,219.38
2019-05-19T12:04:16.831Z,213.75
2019-05-19T12:05:17.007Z,202.50
2019-05-19T12:06:17.218Z,185.62
2019-05-19T12:07:17.411Z,174.38
2019-05-19T12:08:17.606Z,174.38
2019-05-19T12:09:18.804Z,163.12
2019-05-19T12:10:17.981Z,157.50
2019-05-19T12:11:18.177Z,151.88
2019-05-19T12:12:18.399Z,146.25
2019-05-19T12:13:18.677Z,140.62
2019-05-19T12:14:18.773Z,129.38
2019-05-19T12:15:18.960Z,123.75
2019-05-19T12:16:19.200Z,123.75
2019-05-19T12:17:19.381Z,118.12
2019-05-19T12:18:19.593Z,106.88
2019-05-19T12:19:19.809Z,101.25
2019-05-19T12:20:20.022Z,95.62
2019-05-19T12:21:20.198Z,95.62
2019-05-19T12:22:20.339Z,90.00
2019-05-19T12:23:20.536Z,90.00
2019-05-19T12:24:20.754Z,84.38
2019-05-19T12:25:20.969Z,84.38
2019-05-19T12:26:23.641Z,84.38
2019-05-19T12:27:22.356Z,84.38
2019-05-19T12:28:21.495Z,84.38
2019-05-19T12:29:21.690Z,78.75
2019-05-19T12:30:21.917Z,73.12
2019-05-19T12:31:22.106Z,67.50
2019-05-19T12:32:22.292Z,67.50
2019-05-19T12:33:22.523Z,67.50
2019-05-19T12:34:22.687Z,73.12
2019-05-19T12:35:22.885Z,78.75
2019-05-19T12:36:23.089Z,78.75
2019-05-19T12:37:23.242Z,78.75
2019-05-19T12:38:23.458Z,84.38
2019-05-19T12:39:23.652Z,84.38
2019-05-19T12:40:23.826Z,84.38
2019-05-19T12:41:24.023Z,73.12
2019-05-19T12:42:24.206Z,73.12
2019-05-19T12:43:24.377Z,67.50
2019-05-19T12:44:24.566Z,67.50